Nehawka, Nebraska
Current Conditions -  °F | °C
As of 10:15 AM on Wednesday 26 Nov 2014 (Local Time) from KPMV Reporting Station
Overcast Overcast  
Wind Chill: 24°   Ceiling: 1100
Heat Index: 35°   Visibility: 10mi
Dew Point: 32°   Wind: 21mph
Humidity: 89%   Direction: 310°NW
Pressure: 29.99"   Gusts: 29mph
Location:  40.83°N, 95.99°W
Report Text: KPMV 261615Z AUTO 31018G25KT 10SM OVC011 02/00 A2999 RMK AO2 T00160000
Loading
Personal Weather Stations






























Interactive Weather Map New forecast layout! Learn more

10-Day Weather Forecast

Advertisements
Track Severe Weather on mobile